Time;durP1;ratioP1;P1;durP2;ratioP2;P2;SDS_P1;SDS_P2;PMS_P1;PMS_P2;Temp;Humidity;BMP_temperature;BMP_pressure;BME280_temperature;BME280_humidity;BME280_pressure;Samples;Min_cycle;Max_cycle;Signal;HPM_P1;HPM_P2
2022/05/05 00:00:39;;;;;;;0.50;0.50;;;9.70;99.90;;;;;;5053383;28;20176;-69
2022/05/05 00:03:04;;;;;;;0.30;0.30;;;9.70;99.90;;;;;;5053756;28;20532;-70
2022/05/05 00:05:30;;;;;;;0.40;0.40;;;9.70;99.90;;;;;;5053929;28;20635;-68
2022/05/05 00:07:56;;;;;;;0.30;0.30;;;9.80;99.90;;;;;;5053683;28;20273;-70
2022/05/05 00:15:50;;;;;;;0.30;0.30;;;9.90;99.90;;;;;;5053804;28;20188;-69
2022/05/05 00:18:15;;;;;;;0.77;0.77;;;9.90;99.90;;;;;;5053581;28;20170;-69
2022/05/05 00:20:42;;;;;;;0.40;0.40;;;10.00;99.90;;;;;;5052924;28;20240;-70
2022/05/05 00:23:07;;;;;;;0.30;0.30;;;10.10;99.90;;;;;;5053330;28;20162;-70
2022/05/05 00:25:33;;;;;;;0.30;0.30;;;10.00;99.90;;;;;;5053405;28;20606;-69
2022/05/05 00:27:59;;;;;;;0.30;0.30;;;10.10;99.90;;;;;;5053391;28;20576;-70
2022/05/05 00:30:24;;;;;;;0.30;0.30;;;10.10;99.90;;;;;;5053008;28;20270;-69
2022/05/05 00:32:50;;;;;;;0.30;0.30;;;10.20;99.90;;;;;;5053212;28;20654;-70
2022/05/05 00:35:16;;;;;;;0.30;0.30;;;10.20;99.90;;;;;;5053489;28;20508;-69
2022/05/05 00:37:41;;;;;;;0.30;0.30;;;10.30;99.90;;;;;;5053559;28;20170;-68
2022/05/05 00:40:08;;;;;;;0.30;0.30;;;10.30;99.90;;;;;;5053239;28;20174;-70
2022/05/05 00:42:35;;;;;;;0.30;0.30;;;10.40;99.90;;;;;;5053055;28;20308;-70
2022/05/05 00:45:01;;;;;;;0.30;0.30;;;10.40;99.90;;;;;;5056954;28;20181;-68
2022/05/05 00:47:27;;;;;;;0.30;0.30;;;10.40;99.90;;;;;;5057032;28;20290;-68
2022/05/05 00:49:53;;;;;;;0.40;0.40;;;10.40;99.90;;;;;;5056939;28;20312;-69
2022/05/05 00:52:19;;;;;;;0.30;0.30;;;10.50;99.90;;;;;;5057049;28;20193;-69
2022/05/05 00:54:44;;;;;;;0.30;0.30;;;10.60;99.90;;;;;;5057098;28;20170;-70
2022/05/05 00:57:13;;;;;;;0.30;0.30;;;10.50;99.90;;;;;;5056973;28;20174;-69
2022/05/05 00:59:38;;;;;;;0.40;0.40;;;10.60;99.90;;;;;;5057060;28;20185;-69
2022/05/05 01:02:04;;;;;;;0.30;0.30;;;10.60;99.90;;;;;;5056629;28;20655;-70
2022/05/05 01:04:32;;;;;;;0.30;0.30;;;10.60;99.90;;;;;;5056818;28;20409;-70
2022/05/05 01:06:59;;;;;;;0.30;0.30;;;10.70;99.90;;;;;;5056810;28;20296;-69
2022/05/05 01:09:25;;;;;;;0.30;0.30;;;10.70;99.90;;;;;;5056869;28;20175;-69
2022/05/05 01:11:51;;;;;;;0.30;0.30;;;10.60;99.90;;;;;;5056334;28;20286;-69
2022/05/05 01:14:17;;;;;;;1.17;0.63;;;10.70;99.90;;;;;;5056549;28;20245;-69
2022/05/05 01:16:43;;;;;;;0.30;0.30;;;10.70;99.90;;;;;;5056626;28;20584;-70
2022/05/05 01:19:08;;;;;;;0.70;0.60;;;10.70;99.90;;;;;;5056594;28;20166;-70
2022/05/05 01:21:34;;;;;;;0.30;0.30;;;10.70;99.90;;;;;;5056082;28;20449;-68
2022/05/05 01:24:00;;;;;;;0.30;0.30;;;10.80;99.90;;;;;;5056352;28;20224;-69
2022/05/05 01:29:11;;;;;;;0.30;0.30;;;10.80;99.90;;;;;;5056663;28;20696;-69
2022/05/05 01:31:38;;;;;;;0.30;0.30;;;10.90;99.90;;;;;;5056133;28;20562;-69
2022/05/05 01:34:04;;;;;;;0.50;0.50;;;10.90;99.90;;;;;;5056368;28;20166;-68
2022/05/05 01:36:29;;;;;;;0.30;0.30;;;10.90;99.90;;;;;;5056146;28;20177;-68
2022/05/05 01:38:55;;;;;;;0.30;0.30;;;10.90;99.90;;;;;;5056683;28;20404;-70
2022/05/05 01:41:21;;;;;;;0.30;0.30;;;10.90;99.90;;;;;;5055857;28;20515;-70
2022/05/05 01:43:47;;;;;;;0.50;0.50;;;11.00;99.90;;;;;;5056422;28;20580;-69
2022/05/05 01:46:14;;;;;;;0.30;0.30;;;11.00;99.90;;;;;;5056122;28;20459;-69
2022/05/05 01:48:39;;;;;;;0.30;0.30;;;11.00;99.90;;;;;;5056131;28;20446;-69
2022/05/05 01:51:05;;;;;;;0.30;0.30;;;11.00;99.90;;;;;;5055736;28;20670;-69
2022/05/05 01:53:36;;;;;;;0.30;0.30;;;11.00;99.90;;;;;;5056024;28;20507;-69
2022/05/05 01:56:07;;;;;;;0.30;0.30;;;11.00;99.90;;;;;;5055674;28;20404;-69
2022/05/05 01:58:33;;;;;;;0.30;0.30;;;11.00;99.90;;;;;;5056050;28;20184;-69
2022/05/05 02:00:59;;;;;;;0.30;0.30;;;10.90;99.90;;;;;;5055478;28;20543;-69
2022/05/05 02:03:25;;;;;;;0.40;0.30;;;11.00;99.90;;;;;;5055734;28;20178;-69
2022/05/05 02:05:50;;;;;;;0.30;0.30;;;10.90;99.90;;;;;;5055706;28;20173;-70
2022/05/05 02:08:16;;;;;;;0.30;0.30;;;11.00;99.90;;;;;;5055582;28;20405;-68
2022/05/05 02:10:42;;;;;;;0.30;0.30;;;11.00;99.90;;;;;;5055430;28;20213;-69
2022/05/05 02:13:09;;;;;;;0.40;0.40;;;11.10;99.90;;;;;;5055504;28;20178;-68
2022/05/05 02:15:35;;;;;;;0.30;0.30;;;11.10;99.90;;;;;;5055665;28;20166;-69
2022/05/05 02:18:08;;;;;;;0.30;0.30;;;11.10;99.90;;;;;;5055588;28;20512;-70
2022/05/05 02:20:34;;;;;;;0.30;0.30;;;11.00;99.90;;;;;;5055080;28;20689;-69
2022/05/05 02:23:00;;;;;;;0.30;0.30;;;10.90;99.90;;;;;;5055511;28;20251;-69
2022/05/05 02:25:26;;;;;;;0.30;0.30;;;10.80;99.90;;;;;;5055342;28;20496;-69
2022/05/05 02:27:52;;;;;;;0.37;0.37;;;10.70;99.90;;;;;;5055240;28;20716;-69
2022/05/05 02:30:22;;;;;;;0.50;0.50;;;10.80;99.90;;;;;;5055179;28;20177;-68
2022/05/05 02:32:47;;;;;;;0.40;0.40;;;10.90;99.90;;;;;;5054926;28;20559;-70
2022/05/05 02:35:14;;;;;;;0.30;0.30;;;11.00;99.90;;;;;;5055062;28;20170;-70
2022/05/05 02:40:25;;;;;;;0.30;0.30;;;11.10;99.90;;;;;;5055043;28;20404;-71
2022/05/05 02:42:51;;;;;;;0.30;0.30;;;11.10;99.90;;;;;;5054883;28;20204;-69
2022/05/05 02:45:17;;;;;;;0.30;0.30;;;11.10;99.90;;;;;;5054800;28;20447;-70
2022/05/05 02:47:42;;;;;;;0.30;0.30;;;11.10;99.90;;;;;;5053659;28;20485;-70
2022/05/05 02:50:08;;;;;;;0.30;0.30;;;11.00;99.90;;;;;;5054807;28;20563;-69
2022/05/05 02:52:34;;;;;;;0.30;0.30;;;11.10;99.90;;;;;;5054757;28;20190;-69
2022/05/05 02:55:01;;;;;;;0.43;0.43;;;11.20;99.90;;;;;;5054775;28;20416;-70
2022/05/05 02:57:27;;;;;;;0.30;0.30;;;11.10;99.90;;;;;;5054580;28;20167;-70
2022/05/05 02:59:54;;;;;;;0.97;0.87;;;11.00;99.90;;;;;;5054432;28;20189;-68
2022/05/05 03:02:20;;;;;;;0.35;0.35;;;11.00;99.90;;;;;;5054477;28;20275;-69
2022/05/05 03:04:46;;;;;;;0.40;0.40;;;11.10;99.90;;;;;;5054743;28;20186;-70
2022/05/05 03:07:12;;;;;;;0.40;0.40;;;11.10;99.90;;;;;;5053700;28;20561;-70
2022/05/05 03:09:41;;;;;;;0.30;0.30;;;11.10;99.90;;;;;;5054436;28;20185;-70
2022/05/05 03:12:08;;;;;;;0.50;0.50;;;11.10;99.90;;;;;;5054316;28;20420;-70
2022/05/05 03:14:34;;;;;;;0.30;0.30;;;11.10;99.90;;;;;;5052937;28;20213;-70
2022/05/05 03:16:59;;;;;;;0.30;0.30;;;11.00;99.90;;;;;;5054273;28;20194;-70
2022/05/05 03:19:26;;;;;;;0.40;0.40;;;10.90;99.90;;;;;;5054239;28;20166;-69
2022/05/05 03:21:53;;;;;;;0.30;0.30;;;10.80;99.90;;;;;;5053815;28;20206;-68
2022/05/05 03:24:18;;;;;;;0.30;0.30;;;10.70;99.90;;;;;;5054082;28;20201;-68
2022/05/05 03:26:44;;;;;;;0.30;0.30;;;10.80;99.90;;;;;;5054209;28;20620;-69
2022/05/05 03:29:10;;;;;;;0.30;0.30;;;11.00;99.90;;;;;;5054163;28;20249;-70
2022/05/05 03:31:35;;;;;;;0.30;0.30;;;11.00;99.90;;;;;;5053789;28;20196;-70
2022/05/05 03:34:01;;;;;;;0.30;0.30;;;11.00;99.90;;;;;;5054022;28;20170;-70
2022/05/05 03:36:27;;;;;;;0.50;0.50;;;11.00;99.90;;;;;;5054043;28;20170;-69
2022/05/05 03:38:54;;;;;;;0.30;0.30;;;10.90;99.90;;;;;;5053907;28;20220;-70
2022/05/05 03:41:20;;;;;;;0.30;0.30;;;10.90;99.90;;;;;;5053632;28;20535;-69
2022/05/05 03:43:45;;;;;;;0.30;0.30;;;10.90;99.90;;;;;;5053719;28;20319;-68
2022/05/05 03:46:11;;;;;;;0.30;0.30;;;10.90;99.90;;;;;;5053683;28;20457;-69
2022/05/05 03:48:36;;;;;;;0.30;0.30;;;11.00;99.90;;;;;;5053954;28;20170;-69
2022/05/05 03:51:02;;;;;;;0.90;0.80;;;11.10;99.90;;;;;;5053490;28;20702;-69
2022/05/05 03:53:28;;;;;;;0.70;0.70;;;11.10;99.90;;;;;;5053645;28;20646;-69
2022/05/05 03:55:54;;;;;;;0.30;0.30;;;11.00;99.90;;;;;;5053779;28;20198;-69
2022/05/05 03:58:19;;;;;;;0.30;0.30;;;11.20;99.90;;;;;;5053638;28;20170;-70
2022/05/05 04:00:47;;;;;;;0.40;0.40;;;11.20;99.90;;;;;;5053320;28;20261;-69
2022/05/05 04:03:31;;;;;;;0.38;0.38;;;11.20;99.90;;;;;;5053876;28;20181;-69
2022/05/05 04:05:58;;;;;;;0.30;0.30;;;11.20;99.90;;;;;;5053668;28;20573;-70
2022/05/05 04:08:25;;;;;;;0.37;0.37;;;11.30;99.90;;;;;;5053688;28;20216;-70
2022/05/05 04:10:50;;;;;;;0.80;0.80;;;11.30;99.90;;;;;;5053262;28;20417;-69
2022/05/05 04:13:16;;;;;;;0.93;0.60;;;11.30;99.90;;;;;;5053395;28;20504;-68
2022/05/05 04:15:42;;;;;;;0.40;0.40;;;11.30;99.90;;;;;;5053370;28;20174;-70
2022/05/05 04:18:08;;;;;;;0.30;0.30;;;11.30;99.90;;;;;;5052968;28;20635;-69
2022/05/05 04:20:33;;;;;;;0.30;0.30;;;11.20;99.90;;;;;;5052896;28;20590;-69
2022/05/05 04:22:59;;;;;;;0.30;0.30;;;11.30;99.90;;;;;;5053292;28;20154;-69
2022/05/05 04:25:24;;;;;;;0.90;0.90;;;11.30;99.90;;;;;;5053418;28;20166;-69
2022/05/05 04:27:51;;;;;;;0.40;0.40;;;11.40;99.90;;;;;;5053167;28;20204;-69
2022/05/05 04:30:17;;;;;;;0.30;0.30;;;11.40;99.90;;;;;;5053561;28;20166;-69
2022/05/05 04:32:43;;;;;;;0.30;0.30;;;11.30;99.90;;;;;;5053176;28;20655;-68
2022/05/05 04:35:10;;;;;;;0.30;0.30;;;11.30;99.90;;;;;;5053265;28;20539;-70
2022/05/05 04:37:36;;;;;;;0.30;0.30;;;11.40;99.90;;;;;;5053319;28;20174;-70
2022/05/05 04:40:02;;;;;;;0.30;0.30;;;11.40;99.90;;;;;;5051878;28;20498;-70
2022/05/05 04:42:28;;;;;;;0.30;0.30;;;11.30;99.90;;;;;;5053079;28;20475;-69
2022/05/05 04:44:53;;;;;;;0.30;0.30;;;11.30;99.90;;;;;;5053368;28;20881;-70
2022/05/05 04:47:19;;;;;;;0.30;0.30;;;11.40;99.90;;;;;;5053124;28;20194;-69
2022/05/05 04:49:45;;;;;;;0.30;0.30;;;11.40;99.90;;;;;;5053019;28;20177;-69
2022/05/05 04:52:11;;;;;;;0.30;0.30;;;11.50;99.90;;;;;;5052124;28;20190;-69
2022/05/05 04:54:36;;;;;;;0.30;0.30;;;11.50;99.90;;;;;;5051368;28;20163;-70
2022/05/05 04:57:02;;;;;;;0.30;0.30;;;11.50;99.90;;;;;;5052825;28;20171;-69
2022/05/05 04:59:30;;;;;;;0.30;0.30;;;11.50;99.90;;;;;;5051087;28;20186;-69
2022/05/05 05:01:56;;;;;;;0.30;0.30;;;11.50;99.90;;;;;;5051754;28;20424;-68
2022/05/05 05:04:21;;;;;;;0.87;0.87;;;11.50;99.90;;;;;;5052968;28;20411;-70
2022/05/05 05:06:47;;;;;;;0.30;0.30;;;11.50;99.90;;;;;;5052576;28;20455;-70
2022/05/05 05:09:12;;;;;;;1.23;1.13;;;11.50;99.90;;;;;;5051113;28;20249;-69
2022/05/05 05:11:38;;;;;;;0.70;0.70;;;11.60;99.90;;;;;;5051827;28;20265;-70
2022/05/05 05:14:04;;;;;;;0.30;0.30;;;11.60;99.90;;;;;;5052778;28;20583;-70
2022/05/05 05:16:29;;;;;;;0.30;0.30;;;11.60;99.90;;;;;;5051935;28;20283;-70
2022/05/05 05:18:55;;;;;;;0.50;0.50;;;11.60;99.90;;;;;;5051313;28;20170;-70
2022/05/05 05:21:21;;;;;;;0.30;0.30;;;11.70;99.90;;;;;;5051860;28;20224;-70
2022/05/05 05:23:47;;;;;;;0.30;0.30;;;11.70;99.90;;;;;;5052399;28;20458;-68
2022/05/05 05:26:15;;;;;;;0.30;0.30;;;11.70;99.90;;;;;;5052668;28;20200;-70
2022/05/05 05:28:41;;;;;;;0.30;0.30;;;11.80;99.90;;;;;;5052765;28;20170;-70
2022/05/05 05:31:07;;;;;;;0.30;0.30;;;11.80;99.90;;;;;;5055972;28;20848;-70
2022/05/05 05:33:33;;;;;;;0.30;0.30;;;11.70;99.90;;;;;;5056281;28;20409;-70
2022/05/05 05:35:58;;;;;;;0.30;0.30;;;11.80;99.90;;;;;;5056263;28;20170;-69
2022/05/05 05:38:24;;;;;;;0.40;0.40;;;11.80;99.90;;;;;;5056269;28;20211;-69
2022/05/05 05:40:50;;;;;;;0.30;0.30;;;11.90;99.90;;;;;;5056167;28;20184;-69
2022/05/05 05:43:16;;;;;;;0.50;0.50;;;11.90;99.90;;;;;;5056212;28;20171;-70
2022/05/05 05:45:41;;;;;;;0.30;0.30;;;12.00;99.90;;;;;;5056093;28;20252;-70
2022/05/05 05:48:07;;;;;;;0.40;0.40;;;12.00;99.90;;;;;;5056151;28;20544;-69
2022/05/05 05:50:33;;;;;;;0.37;0.37;;;12.00;99.90;;;;;;5055816;28;20168;-68
2022/05/05 05:52:59;;;;;;;0.30;0.30;;;12.00;99.90;;;;;;5055803;28;20407;-68
2022/05/05 05:55:26;;;;;;;0.30;0.30;;;12.10;99.90;;;;;;5055807;28;20762;-70
2022/05/05 05:57:52;;;;;;;0.80;0.80;;;12.10;99.90;;;;;;5055775;28;20220;-70
2022/05/05 06:00:18;;;;;;;1.37;1.37;;;12.00;99.90;;;;;;5055772;28;20444;-70
2022/05/05 06:05:28;;;;;;;0.30;0.30;;;12.10;99.90;;;;;;5055827;28;20457;-70
2022/05/05 06:07:59;;;;;;;0.30;0.30;;;12.10;99.90;;;;;;5055512;28;20932;-70
2022/05/05 06:10:25;;;;;;;0.87;0.60;;;12.10;99.90;;;;;;5055359;28;20166;-69
2022/05/05 06:12:51;;;;;;;0.97;0.90;;;12.10;99.90;;;;;;5055516;28;20501;-70
2022/05/05 06:15:17;;;;;;;1.60;1.47;;;12.20;99.90;;;;;;5054340;28;20403;-69
2022/05/05 06:17:43;;;;;;;0.30;0.30;;;12.10;99.90;;;;;;5055479;28;20466;-70
2022/05/05 06:20:09;;;;;;;0.30;0.30;;;12.10;99.90;;;;;;5055292;28;20409;-68
2022/05/05 06:22:35;;;;;;;0.30;0.30;;;12.20;99.90;;;;;;5055204;28;20646;-70
2022/05/05 06:25:02;;;;;;;0.30;0.30;;;12.20;99.90;;;;;;5055296;28;20399;-69
2022/05/05 06:27:27;;;;;;;0.30;0.30;;;12.20;99.90;;;;;;5055321;28;20572;-69
2022/05/05 06:29:53;;;;;;;0.30;0.30;;;12.30;99.90;;;;;;5055302;28;20406;-68
2022/05/05 06:32:18;;;;;;;0.57;0.57;;;12.50;99.90;;;;;;5055261;28;20197;-70
2022/05/05 06:34:44;;;;;;;0.30;0.30;;;12.60;99.90;;;;;;5053781;28;20177;-70
2022/05/05 06:37:10;;;;;;;0.30;0.30;;;12.60;99.90;;;;;;5053450;28;20169;-70
2022/05/05 06:39:36;;;;;;;0.30;0.30;;;12.80;99.90;;;;;;5053813;28;20316;-69
2022/05/05 06:42:02;;;;;;;2.20;2.10;;;12.90;99.90;;;;;;5052352;28;20922;-70
2022/05/05 06:44:27;;;;;;;0.40;0.40;;;13.00;99.90;;;;;;5053160;28;20184;-70
2022/05/05 06:46:54;;;;;;;0.60;0.60;;;13.10;99.90;;;;;;5054883;28;20327;-70
2022/05/05 06:49:20;;;;;;;0.30;0.30;;;13.10;99.90;;;;;;5055006;28;20279;-70
2022/05/05 06:51:46;;;;;;;0.40;0.40;;;13.10;99.90;;;;;;5054317;28;20982;-70
2022/05/05 06:54:12;;;;;;;0.30;0.30;;;13.30;99.90;;;;;;5054438;28;20401;-70
2022/05/05 06:56:37;;;;;;;0.40;0.40;;;13.40;99.90;;;;;;5054378;28;20262;-70
2022/05/05 06:59:03;;;;;;;0.30;0.30;;;13.70;99.90;;;;;;5054799;28;20674;-70
2022/05/05 07:06:57;;;;;;;0.30;0.30;;;13.60;99.90;;;;;;5054556;28;20583;-69
2022/05/05 07:12:07;;;;;;;0.30;0.30;;;13.70;99.60;;;;;;5054441;28;20249;-69
2022/05/05 07:14:33;;;;;;;0.40;0.40;;;13.60;99.50;;;;;;5053549;28;20952;-71
2022/05/05 07:17:05;;;;;;;0.30;0.30;;;13.70;99.50;;;;;;5051983;28;20401;-69
2022/05/05 07:19:33;;;;;;;0.30;0.30;;;13.90;99.70;;;;;;5051280;28;20643;-70
2022/05/05 07:21:58;;;;;;;0.30;0.30;;;14.20;99.70;;;;;;5052510;28;20467;-71
2022/05/05 07:24:24;;;;;;;0.30;0.30;;;14.20;99.50;;;;;;5053091;28;20171;-69
2022/05/05 07:26:49;;;;;;;0.30;0.30;;;14.20;99.90;;;;;;5052181;28;20208;-69
2022/05/05 07:29:16;;;;;;;0.30;0.30;;;14.20;99.90;;;;;;5052265;28;20172;-71
2022/05/05 07:31:41;;;;;;;2.23;2.13;;;14.30;99.90;;;;;;5051578;28;20197;-71
2022/05/05 07:34:07;;;;;;;0.30;0.30;;;14.40;99.90;;;;;;5052083;28;20482;-70
2022/05/05 07:36:33;;;;;;;0.30;0.30;;;14.60;99.80;;;;;;5053151;28;20177;-69
2022/05/05 07:38:59;;;;;;;0.30;0.30;;;14.70;97.50;;;;;;5051309;28;20412;-70
2022/05/05 07:41:25;;;;;;;0.40;0.40;;;14.90;96.00;;;;;;5052423;28;20283;-71
2022/05/05 07:43:50;;;;;;;0.63;0.63;;;15.40;96.90;;;;;;5052979;28;20437;-71
2022/05/05 07:46:20;;;;;;;0.30;0.30;;;15.50;95.30;;;;;;5052124;28;20190;-70
2022/05/05 07:48:46;;;;;;;1.13;0.63;;;15.50;95.20;;;;;;5052947;28;20192;-70
2022/05/05 07:51:12;;;;;;;0.40;0.40;;;15.50;95.40;;;;;;5052478;28;20432;-71
2022/05/05 07:53:37;;;;;;;0.50;0.50;;;15.70;95.70;;;;;;5052391;28;20462;-70
2022/05/05 07:56:03;;;;;;;0.30;0.30;;;15.80;95.40;;;;;;5052795;28;20499;-71
2022/05/05 07:58:29;;;;;;;0.30;0.30;;;15.90;95.30;;;;;;5052818;28;20163;-70
2022/05/05 08:00:55;;;;;;;0.30;0.30;;;15.90;95.40;;;;;;5053566;28;20427;-71
2022/05/05 08:03:20;;;;;;;0.30;0.30;;;16.00;95.30;;;;;;5054122;28;20223;-72
2022/05/05 08:05:46;;;;;;;0.30;0.30;;;16.10;94.30;;;;;;5053524;28;20647;-71
2022/05/05 08:08:13;;;;;;;0.77;0.77;;;16.30;95.10;;;;;;5053546;28;20197;-70
2022/05/05 08:10:38;;;;;;;0.30;0.30;;;16.50;93.90;;;;;;5053209;28;20538;-70
2022/05/05 08:13:04;;;;;;;0.30;0.30;;;16.70;94.20;;;;;;5053356;28;20405;-71
2022/05/05 08:15:30;;;;;;;0.30;0.30;;;17.20;93.90;;;;;;5053313;28;20170;-72
2022/05/05 08:17:56;;;;;;;0.30;0.30;;;17.30;92.40;;;;;;5053484;28;20174;-72
2022/05/05 08:20:22;;;;;;;0.30;0.30;;;17.30;91.40;;;;;;5053115;28;20752;-72
2022/05/05 08:22:48;;;;;;;0.30;0.30;;;17.40;91.80;;;;;;5053150;28;20225;-70
2022/05/05 08:30:42;;;;;;;0.30;0.30;;;16.30;92.90;;;;;;5053245;28;20466;-71
2022/05/05 08:33:08;;;;;;;0.30;0.30;;;16.10;94.00;;;;;;5053249;28;20417;-71
2022/05/05 08:35:34;;;;;;;0.50;0.50;;;16.00;94.30;;;;;;5053572;28;20163;-71
2022/05/05 08:37:59;;;;;;;0.40;0.40;;;15.90;94.40;;;;;;5053216;28;20682;-70
2022/05/05 08:40:27;;;;;;;0.30;0.30;;;15.80;94.30;;;;;;5052988;28;20414;-70
2022/05/05 08:42:53;;;;;;;0.40;0.40;;;15.60;94.00;;;;;;5053175;28;20186;-71
2022/05/05 08:45:19;;;;;;;0.30;0.30;;;15.30;95.00;;;;;;5051984;28;20461;-71
2022/05/05 08:47:47;;;;;;;0.30;0.30;;;15.00;94.50;;;;;;5052935;28;20452;-69
2022/05/05 08:50:13;;;;;;;0.57;0.57;;;14.90;95.60;;;;;;5053305;28;20412;-70
2022/05/05 08:52:48;;;;;;;0.50;0.50;;;14.90;95.00;;;;;;5052931;28;20445;-69
2022/05/05 08:55:16;;;;;;;0.30;0.30;;;14.90;95.90;;;;;;5053322;28;20453;-70
2022/05/05 08:57:42;;;;;;;0.40;0.40;;;14.70;97.00;;;;;;5052935;28;20409;-70
2022/05/05 09:00:10;;;;;;;0.30;0.30;;;14.70;96.30;;;;;;5051660;28;20511;-70
2022/05/05 09:02:36;;;;;;;0.30;0.30;;;14.50;96.50;;;;;;5051104;28;21072;-70
2022/05/05 09:05:03;;;;;;;0.30;0.30;;;14.20;95.70;;;;;;5053570;28;20774;-71
2022/05/05 09:07:49;;;;;;;0.30;0.30;;;14.10;96.70;;;;;;5054740;28;20463;-70
2022/05/05 09:10:17;;;;;;;0.30;0.30;;;14.20;97.60;;;;;;5054053;28;20409;-69
2022/05/05 09:12:55;;;;;;;0.30;0.30;;;14.20;97.80;;;;;;5056570;28;20464;-69
2022/05/05 09:15:29;;;;;;;0.30;0.30;;;14.20;97.60;;;;;;5056864;28;20404;-71
2022/05/05 09:17:54;;;;;;;0.50;0.50;;;14.10;98.70;;;;;;5055387;28;20971;-69
2022/05/05 09:20:35;;;;;;;0.30;0.30;;;14.00;98.30;;;;;;5056326;28;20409;-70
2022/05/05 09:23:00;;;;;;;0.30;0.30;;;13.90;98.60;;;;;;5056508;28;20162;-69
2022/05/05 09:25:44;;;;;;;0.30;0.30;;;13.90;98.80;;;;;;5056365;28;20401;-71
2022/05/05 09:28:23;;;;;;;0.30;0.30;;;13.80;98.40;;;;;;5056612;28;20226;-70
2022/05/05 09:30:53;;;;;;;0.43;0.43;;;13.70;98.60;;;;;;5056093;28;20420;-70
2022/05/05 09:33:34;;;;;;;0.40;0.40;;;13.60;99.00;;;;;;5056340;28;20408;-70
2022/05/05 09:36:02;;;;;;;0.50;0.50;;;13.60;99.80;;;;;;5056198;28;20527;-71
2022/05/05 09:39:05;;;;;;;0.30;0.30;;;13.50;99.90;;;;;;5056213;28;20405;-71
2022/05/05 09:41:33;;;;;;;0.30;0.30;;;13.40;99.90;;;;;;5056044;28;20423;-71
2022/05/05 09:44:11;;;;;;;0.67;0.67;;;13.30;99.90;;;;;;5055965;28;20436;-69
2022/05/05 09:46:36;;;;;;;0.40;0.40;;;13.30;99.90;;;;;;5056424;28;20448;-69
2022/05/05 09:49:08;;;;;;;0.30;0.30;;;13.30;99.90;;;;;;5056039;28;20782;-70
2022/05/05 09:51:43;;;;;;;0.30;0.30;;;13.30;99.90;;;;;;5055915;28;20197;-71
2022/05/05 09:59:51;;;;;;;0.30;0.30;;;13.10;99.90;;;;;;5056013;28;20403;-71
2022/05/05 10:05:17;;;;;;;0.30;0.30;;;13.30;99.90;;;;;;5056156;28;20495;-70
2022/05/05 10:07:45;;;;;;;0.30;0.30;;;13.50;99.90;;;;;;5055615;28;20840;-70
2022/05/05 10:10:15;;;;;;;1.27;0.80;;;13.60;99.90;;;;;;5055457;28;20401;-69
2022/05/05 10:12:41;;;;;;;0.30;0.30;;;13.60;99.90;;;;;;5052948;28;20515;-69
2022/05/05 10:15:09;;;;;;;0.30;0.30;;;13.70;99.90;;;;;;5055843;28;20396;-71
2022/05/05 10:17:35;;;;;;;0.30;0.30;;;13.70;99.90;;;;;;5055657;28;20504;-70
2022/05/05 10:20:03;;;;;;;0.33;0.33;;;13.70;99.90;;;;;;5055381;28;20485;-71
2022/05/05 10:22:57;;;;;;;0.30;0.30;;;13.60;99.90;;;;;;5055563;28;20801;-71
2022/05/05 10:25:28;;;;;;;0.30;0.30;;;13.70;99.90;;;;;;5055448;28;20481;-71
2022/05/05 10:27:57;;;;;;;0.30;0.30;;;13.70;99.90;;;;;;5055907;28;20846;-69
2022/05/05 10:30:36;;;;;;;0.30;0.30;;;13.60;99.90;;;;;;5055442;28;20483;-70
2022/05/05 10:33:04;;;;;;;0.40;0.40;;;13.60;99.90;;;;;;5055618;28;20381;-70
2022/05/05 10:35:48;;;;;;;0.30;0.30;;;13.50;99.90;;;;;;5053371;28;20817;-71
2022/05/05 10:38:40;;;;;;;0.30;0.30;;;13.50;99.90;;;;;;5055110;28;20402;-70
2022/05/05 10:41:36;;;;;;;0.40;0.40;;;13.50;99.90;;;;;;5054821;28;20436;-71
2022/05/05 10:44:20;;;;;;;0.30;0.30;;;13.50;99.90;;;;;;5046245;28;20447;-71
2022/05/05 10:46:54;;;;;;;0.40;0.40;;;13.60;99.90;;;;;;5054942;28;20440;-71
2022/05/05 10:49:32;;;;;;;0.30;0.30;;;13.60;99.90;;;;;;5054912;28;20816;-71
2022/05/05 10:52:10;;;;;;;0.30;0.30;;;13.70;99.90;;;;;;5054467;28;20424;-71
2022/05/05 10:54:44;;;;;;;0.30;0.30;;;13.80;99.90;;;;;;5054959;28;20392;-70
2022/05/05 10:57:25;;;;;;;0.30;0.30;;;13.90;99.90;;;;;;5054909;28;20521;-71
2022/05/05 11:00:10;;;;;;;1.00;1.00;;;13.90;99.90;;;;;;5054534;28;20405;-70
2022/05/05 11:02:36;;;;;;;0.30;0.30;;;14.00;99.90;;;;;;5054591;28;20464;-71
2022/05/05 11:05:24;;;;;;;0.30;0.30;;;13.90;99.90;;;;;;5054792;28;20402;-71
2022/05/05 11:08:14;;;;;;;0.60;0.60;;;13.90;99.90;;;;;;5054659;28;20506;-71
2022/05/05 11:10:48;;;;;;;0.40;0.40;;;13.90;99.90;;;;;;5043371;28;20421;-70
2022/05/05 11:13:38;;;;;;;0.50;0.50;;;13.90;99.90;;;;;;5053124;28;20413;-69
2022/05/05 11:22:17;;;;;;;0.30;0.30;;;14.10;99.90;;;;;;5054092;28;20515;-70
2022/05/05 11:24:45;;;;;;;0.30;0.30;;;14.20;99.90;;;;;;5054219;28;20397;-70
2022/05/05 11:27:13;;;;;;;0.30;0.30;;;14.20;99.90;;;;;;5053661;28;20493;-71
2022/05/05 11:29:39;;;;;;;0.30;0.30;;;14.20;99.90;;;;;;5052963;28;20823;-69
2022/05/05 11:32:05;;;;;;;0.40;0.40;;;14.20;99.90;;;;;;5054006;28;20821;-71
2022/05/05 11:34:37;;;;;;;0.73;0.73;;;14.10;99.90;;;;;;5053976;28;20397;-70
2022/05/05 11:37:05;;;;;;;0.30;0.30;;;13.90;99.90;;;;;;5053937;28;20396;-70
2022/05/05 11:39:32;;;;;;;3.90;1.27;;;13.80;99.90;;;;;;5053937;28;20405;-71
2022/05/05 11:41:59;;;;;;;0.30;0.30;;;13.80;99.90;;;;;;5053622;28;20431;-71
2022/05/05 11:44:26;;;;;;;0.30;0.30;;;13.80;99.90;;;;;;5053930;28;20411;-71
2022/05/05 11:46:53;;;;;;;0.40;0.40;;;13.70;99.90;;;;;;5053903;28;20448;-70
2022/05/05 11:49:19;;;;;;;0.30;0.30;;;13.70;99.90;;;;;;5053938;28;20402;-70
2022/05/05 11:51:45;;;;;;;0.30;0.30;;;13.70;99.90;;;;;;5053555;28;20420;-70
2022/05/05 11:54:15;;;;;;;0.30;0.30;;;13.70;99.90;;;;;;5053666;28;20744;-69
2022/05/05 11:56:46;;;;;;;0.30;0.30;;;13.60;99.90;;;;;;5053671;28;20517;-71
2022/05/05 12:02:04;;;;;;;0.30;0.30;;;13.60;99.90;;;;;;5053395;28;20429;-71
2022/05/05 12:04:32;;;;;;;0.40;0.40;;;13.60;99.90;;;;;;5053617;28;20817;-71
2022/05/05 12:06:58;;;;;;;0.40;0.40;;;13.70;99.90;;;;;;5053374;28;20482;-71
2022/05/05 12:09:24;;;;;;;0.30;0.30;;;13.80;99.90;;;;;;5053681;28;20404;-70
2022/05/05 12:11:50;;;;;;;0.30;0.30;;;13.80;99.90;;;;;;5053320;28;20430;-71
2022/05/05 12:14:17;;;;;;;0.30;0.30;;;13.80;99.90;;;;;;5053660;28;20641;-71
2022/05/05 12:16:43;;;;;;;0.30;0.30;;;13.80;99.90;;;;;;5053446;28;20170;-71
2022/05/05 12:19:20;;;;;;;0.30;0.30;;;13.80;99.90;;;;;;5053396;28;20790;-70
2022/05/05 12:21:57;;;;;;;0.30;0.30;;;13.70;99.90;;;;;;5053035;28;20443;-71
2022/05/05 12:24:24;;;;;;;0.40;0.40;;;13.70;99.90;;;;;;5053368;28;20411;-70
2022/05/05 12:27:07;;;;;;;0.30;0.30;;;13.70;99.90;;;;;;5053123;28;20452;-70
2022/05/05 12:29:41;;;;;;;0.67;0.67;;;13.80;99.90;;;;;;5053356;28;20756;-71
2022/05/05 12:32:18;;;;;;;0.40;0.40;;;13.80;99.90;;;;;;5053061;28;20875;-70
2022/05/05 12:34:44;;;;;;;0.30;0.30;;;13.80;99.90;;;;;;5053519;28;20393;-70
2022/05/05 12:37:13;;;;;;;0.30;0.30;;;13.80;99.90;;;;;;5053399;28;20402;-71
2022/05/05 12:39:49;;;;;;;0.50;0.50;;;13.80;99.90;;;;;;5056442;28;20463;-70
2022/05/05 12:42:14;;;;;;;0.30;0.30;;;13.80;99.90;;;;;;5057100;28;20421;-70
2022/05/05 12:44:43;;;;;;;0.30;0.30;;;14.00;99.90;;;;;;5057242;28;20408;-71
2022/05/05 12:47:09;;;;;;;0.30;0.30;;;14.10;99.90;;;;;;5055889;28;20196;-71
2022/05/05 12:49:39;;;;;;;0.40;0.40;;;14.20;99.90;;;;;;5056128;28;20917;-71
2022/05/05 12:52:06;;;;;;;0.40;0.40;;;14.30;99.90;;;;;;5057125;28;20224;-71
2022/05/05 13:00:01;;;;;;;0.30;0.30;;;14.70;99.90;;;;;;5057045;28;20411;-69
2022/05/05 13:02:26;;;;;;;0.30;0.30;;;14.90;99.90;;;;;;5056829;28;20936;-70
2022/05/05 13:04:52;;;;;;;0.30;0.30;;;14.90;99.90;;;;;;5057113;28;20404;-70
2022/05/05 13:07:19;;;;;;;0.30;0.30;;;15.20;99.90;;;;;;5056814;28;20208;-70
2022/05/05 13:09:45;;;;;;;0.40;0.40;;;15.50;99.90;;;;;;5056754;28;20574;-70
2022/05/05 13:12:11;;;;;;;0.30;0.30;;;15.90;99.90;;;;;;5056693;28;20421;-70
2022/05/05 13:14:36;;;;;;;0.40;0.40;;;16.20;99.10;;;;;;5056652;28;20854;-70
2022/05/05 13:17:03;;;;;;;0.30;0.30;;;16.40;98.90;;;;;;5056595;28;20491;-71
2022/05/05 13:19:29;;;;;;;0.40;0.40;;;16.50;98.00;;;;;;5056776;28;20529;-71
2022/05/05 13:21:56;;;;;;;0.60;0.60;;;16.70;97.70;;;;;;5056222;28;20452;-72
2022/05/05 13:24:21;;;;;;;0.30;0.30;;;16.80;96.90;;;;;;5056712;28;20407;-70
2022/05/05 13:26:48;;;;;;;0.30;0.30;;;16.40;96.40;;;;;;5055691;28;20882;-71
2022/05/05 13:29:14;;;;;;;0.30;0.30;;;16.40;97.00;;;;;;5054830;28;20165;-71
2022/05/05 13:31:40;;;;;;;0.30;0.30;;;16.30;97.10;;;;;;5056362;28;20432;-70
2022/05/05 13:34:06;;;;;;;0.30;0.30;;;16.00;97.80;;;;;;5056609;28;20408;-71
2022/05/05 13:36:32;;;;;;;0.67;0.67;;;15.80;96.90;;;;;;5056694;28;20413;-72
2022/05/05 13:38:57;;;;;;;0.30;0.30;;;15.30;98.80;;;;;;5056524;28;20243;-71
2022/05/05 13:41:23;;;;;;;0.30;0.30;;;15.10;99.90;;;;;;5056146;28;20543;-71